createdAt,value
2022-12-12T00:00:59.937Z,62.50
2022-12-12T00:03:31.257Z,62.50
2022-12-12T00:05:58.213Z,62.50
2022-12-12T00:08:25.055Z,62.40
2022-12-12T00:10:51.937Z,62.80
2022-12-12T00:13:18.823Z,62.80
2022-12-12T00:15:45.666Z,62.60
2022-12-12T00:18:12.523Z,62.50
2022-12-12T00:20:39.727Z,62.70
2022-12-12T00:23:06.576Z,63.10
2022-12-12T00:25:33.568Z,63.10
2022-12-12T00:28:00.651Z,63.20
2022-12-12T00:30:27.551Z,63.30
2022-12-12T00:32:54.429Z,63.20
2022-12-12T00:35:21.281Z,63.30
2022-12-12T00:37:48.428Z,63.50
2022-12-12T00:40:15.237Z,63.20
2022-12-12T00:42:42.098Z,63.20
2022-12-12T00:45:09.307Z,63.30
2022-12-12T00:47:36.287Z,63.20
2022-12-12T00:50:03.854Z,63.10
2022-12-12T00:52:30.640Z,63.00
2022-12-12T00:54:58.280Z,62.40
2022-12-12T00:57:25.084Z,62.10
2022-12-12T00:59:51.910Z,62.30
2022-12-12T01:02:23.525Z,62.00
2022-12-12T01:04:53.318Z,62.10
2022-12-12T01:07:20.168Z,62.30
2022-12-12T01:09:46.985Z,62.90
2022-12-12T01:12:13.795Z,61.60
2022-12-12T01:14:40.905Z,61.50
2022-12-12T01:17:07.840Z,61.80
2022-12-12T01:19:34.628Z,61.90
2022-12-12T01:22:01.433Z,62.40
2022-12-12T01:24:28.300Z,62.00
2022-12-12T01:26:55.090Z,62.30
2022-12-12T01:29:21.910Z,62.40
2022-12-12T01:31:48.785Z,62.40
2022-12-12T01:34:15.635Z,62.40
2022-12-12T01:36:42.539Z,62.30
2022-12-12T01:39:09.312Z,62.10
2022-12-12T01:41:36.376Z,62.10
2022-12-12T01:44:08.037Z,62.10
2022-12-12T01:46:45.686Z,61.90
2022-12-12T01:49:21.725Z,62.40
2022-12-12T01:51:52.457Z,62.20
2022-12-12T01:54:27.245Z,62.00
2022-12-12T01:56:56.724Z,62.00
2022-12-12T01:59:25.770Z,62.30
2022-12-12T02:01:53.498Z,62.40
2022-12-12T02:04:22.700Z,62.50
2022-12-12T02:06:51.413Z,62.80
2022-12-12T02:09:20.269Z,62.90
2022-12-12T02:11:49.577Z,62.70
2022-12-12T02:14:21.478Z,63.00
2022-12-12T02:16:52.163Z,62.90
2022-12-12T02:19:39.913Z,62.80
2022-12-12T02:22:15.454Z,62.80
2022-12-12T02:24:58.790Z,62.90
2022-12-12T02:27:53.349Z,63.50
2022-12-12T02:30:58.521Z,62.80
2022-12-12T02:33:33.537Z,62.80
2022-12-12T02:36:03.498Z,62.60
2022-12-12T02:38:51.037Z,62.50
2022-12-12T02:41:41.305Z,62.40
2022-12-12T02:44:20.094Z,61.30
2022-12-12T02:47:09.760Z,61.80
2022-12-12T02:49:47.380Z,62.00
2022-12-12T02:52:14.582Z,62.00
2022-12-12T02:54:41.416Z,62.00
2022-12-12T02:57:26.130Z,61.60
2022-12-12T03:00:07.363Z,61.30
2022-12-12T03:03:20.792Z,61.20
2022-12-12T03:06:05.966Z,61.40
2022-12-12T03:08:53.868Z,61.80
2022-12-12T03:11:35.340Z,61.60
2022-12-12T03:14:12.056Z,61.10
2022-12-12T03:17:15.200Z,61.50
2022-12-12T03:19:44.549Z,61.60
2022-12-12T03:22:17.905Z,61.00
2022-12-12T03:25:00.562Z,61.10
2022-12-12T03:27:41.344Z,61.20
2022-12-12T03:30:13.449Z,61.20
2022-12-12T03:32:50.928Z,61.30
2022-12-12T03:35:46.993Z,61.50
2022-12-12T03:38:24.323Z,61.10
2022-12-12T03:40:58.298Z,61.50
2022-12-12T03:43:29.653Z,61.60
2022-12-12T03:46:48.281Z,61.70
2022-12-12T03:49:54.461Z,61.60
2022-12-12T03:52:31.890Z,61.70
2022-12-12T03:55:11.548Z,61.30
2022-12-12T03:57:46.372Z,62.30
2022-12-12T04:00:15.386Z,61.90
2022-12-12T04:02:51.974Z,61.80
2022-12-12T04:05:22.398Z,61.50
2022-12-12T04:08:06.369Z,61.60
2022-12-12T04:11:00.545Z,61.80
2022-12-12T04:13:36.510Z,61.80
2022-12-12T04:16:20.578Z,62.00
2022-12-12T04:18:55.557Z,61.90
2022-12-12T04:22:02.396Z,61.80
2022-12-12T04:24:47.090Z,61.90
2022-12-12T04:27:24.529Z,61.80
2022-12-12T04:30:09.488Z,61.70
2022-12-12T04:32:39.664Z,61.50
2022-12-12T04:35:33.029Z,61.30
2022-12-12T04:38:06.398Z,61.40
2022-12-12T04:40:38.569Z,61.70
2022-12-12T04:43:33.222Z,61.90
2022-12-12T04:46:12.452Z,61.80
2022-12-12T04:48:50.732Z,62.00
2022-12-12T04:51:29.945Z,62.00
2022-12-12T04:54:15.300Z,62.10
2022-12-12T04:56:45.536Z,62.00
2022-12-12T04:59:12.820Z,61.90
2022-12-12T05:01:53.492Z,61.50
2022-12-12T05:05:15.289Z,61.30
2022-12-12T05:07:50.502Z,61.30
2022-12-12T05:10:18.662Z,61.50
2022-12-12T05:12:50.953Z,61.70
2022-12-12T05:15:20.717Z,61.90
2022-12-12T05:18:14.006Z,62.10
2022-12-12T05:20:40.922Z,62.10
2022-12-12T05:23:07.922Z,62.30
2022-12-12T05:25:34.862Z,62.20
2022-12-12T05:28:01.690Z,62.50
2022-12-12T05:30:28.614Z,63.00
2022-12-12T05:32:55.609Z,63.30
2022-12-12T05:35:22.790Z,63.20
2022-12-12T05:37:51.890Z,63.10
2022-12-12T05:40:20.587Z,63.00
2022-12-12T05:42:48.352Z,63.00
2022-12-12T05:45:15.351Z,63.00
2022-12-12T05:47:42.364Z,63.00
2022-12-12T05:50:10.094Z,62.90
2022-12-12T05:52:37.043Z,63.00
2022-12-12T05:55:04.746Z,63.00
2022-12-12T05:57:31.618Z,63.20
2022-12-12T05:59:58.444Z,63.20
2022-12-12T06:02:25.373Z,63.10
2022-12-12T06:04:52.237Z,62.80
2022-12-12T06:07:19.034Z,62.50
2022-12-12T06:09:45.969Z,62.40
2022-12-12T06:12:12.804Z,62.20
2022-12-12T06:14:39.661Z,62.00
2022-12-12T06:17:06.500Z,61.60
2022-12-12T06:19:33.397Z,61.40
2022-12-12T06:22:00.219Z,61.30
2022-12-12T06:24:27.275Z,61.40
2022-12-12T06:26:54.072Z,61.30
2022-12-12T06:29:21.024Z,61.20
2022-12-12T06:31:48.088Z,61.20
2022-12-12T06:34:15.221Z,61.30
2022-12-12T06:36:42.040Z,61.20
2022-12-12T06:39:09.826Z,61.30
2022-12-12T06:41:37.143Z,61.30
2022-12-12T06:44:04.492Z,61.30
2022-12-12T06:46:31.681Z,61.30
2022-12-12T06:48:59.445Z,61.60
2022-12-12T06:51:29.303Z,61.60
2022-12-12T06:53:56.824Z,61.90
2022-12-12T06:56:25.618Z,61.70
2022-12-12T06:58:53.836Z,61.90
2022-12-12T07:01:23.325Z,62.00
2022-12-12T07:03:51.818Z,61.90
2022-12-12T07:06:21.175Z,61.80
2022-12-12T07:08:48.596Z,62.10
2022-12-12T07:11:18.262Z,62.20
2022-12-12T07:13:45.145Z,62.00
2022-12-12T07:16:12.094Z,61.90
2022-12-12T07:18:39.109Z,61.90
2022-12-12T07:21:12.622Z,61.90
2022-12-12T07:23:39.463Z,61.90
2022-12-12T07:26:09.457Z,61.90
2022-12-12T07:28:38.322Z,61.70
2022-12-12T07:31:10.319Z,61.80
2022-12-12T07:33:43.582Z,61.60
2022-12-12T07:36:11.364Z,61.20
2022-12-12T07:38:38.520Z,61.00
2022-12-12T07:41:08.533Z,60.70
2022-12-12T07:43:42.830Z,60.90
2022-12-12T07:46:13.367Z,61.00
2022-12-12T07:48:40.168Z,61.20
2022-12-12T07:51:07.067Z,61.40
2022-12-12T07:53:34.550Z,61.70
2022-12-12T07:56:05.023Z,62.50
2022-12-12T07:58:31.929Z,62.00
2022-12-12T08:00:58.741Z,62.00
2022-12-12T08:03:25.607Z,62.20
2022-12-12T08:05:52.492Z,61.90
2022-12-12T08:08:19.524Z,61.70
2022-12-12T08:10:46.352Z,61.60
2022-12-12T08:13:13.125Z,61.90
2022-12-12T08:15:40.020Z,62.10
2022-12-12T08:18:06.945Z,62.00
2022-12-12T08:20:36.425Z,61.90
2022-12-12T08:23:03.268Z,62.10
2022-12-12T08:25:30.193Z,62.20
2022-12-12T08:27:57.037Z,62.10
2022-12-12T08:30:23.848Z,62.40
2022-12-12T08:33:16.664Z,62.60
2022-12-12T08:35:43.571Z,63.30
2022-12-12T08:38:10.386Z,63.10
2022-12-12T08:40:37.194Z,63.10
2022-12-12T08:43:04.026Z,63.30
2022-12-12T08:45:30.935Z,63.50
2022-12-12T08:47:59.040Z,63.50
2022-12-12T08:50:26.419Z,63.70
2022-12-12T08:52:53.269Z,63.70
2022-12-12T08:55:20.297Z,63.90
2022-12-12T08:57:47.367Z,63.80
2022-12-12T09:00:14.802Z,63.80
2022-12-12T09:02:41.883Z,63.80
2022-12-12T09:05:09.382Z,63.80
2022-12-12T09:07:36.489Z,63.50
2022-12-12T09:10:04.836Z,63.30
2022-12-12T09:12:34.517Z,63.60
2022-12-12T09:15:04.070Z,63.40
2022-12-12T09:17:30.999Z,63.40
2022-12-12T09:19:57.857Z,63.70
2022-12-12T09:22:25.377Z,63.90
2022-12-12T09:24:52.413Z,63.50
2022-12-12T09:27:19.425Z,63.40
2022-12-12T09:29:46.345Z,62.80
2022-12-12T09:32:13.423Z,63.00
2022-12-12T09:34:40.396Z,62.80
2022-12-12T09:37:15.617Z,62.70
2022-12-12T09:39:45.148Z,62.50
2022-12-12T09:42:25.352Z,62.40
2022-12-12T09:44:57.597Z,62.50
2022-12-12T09:47:56.351Z,62.30
2022-12-12T09:50:32.008Z,62.40
2022-12-12T09:53:10.656Z,62.20
2022-12-12T09:55:57.344Z,62.10
2022-12-12T09:58:55.256Z,62.40
2022-12-12T10:01:47.574Z,62.00
2022-12-12T10:04:29.269Z,61.60
2022-12-12T10:07:20.535Z,61.40
2022-12-12T10:10:03.630Z,61.10
2022-12-12T10:12:33.078Z,61.60
2022-12-12T10:15:04.832Z,61.70
2022-12-12T10:17:37.881Z,61.60
2022-12-12T10:20:27.861Z,61.60
2022-12-12T10:23:13.327Z,61.50
2022-12-12T10:25:57.864Z,60.90
2022-12-12T10:28:26.853Z,60.90
2022-12-12T10:31:36.868Z,60.80
2022-12-12T10:34:31.608Z,61.10
2022-12-12T10:37:04.459Z,60.00
2022-12-12T10:39:52.897Z,59.90
2022-12-12T10:42:43.992Z,59.60
2022-12-12T10:45:32.673Z,59.30
2022-12-12T10:48:00.064Z,58.90
2022-12-12T10:50:38.778Z,59.10
2022-12-12T10:53:08.257Z,59.20
2022-12-12T10:55:47.852Z,58.70
2022-12-12T10:58:17.356Z,58.60
2022-12-12T11:00:47.193Z,58.50
2022-12-12T11:03:28.512Z,58.30
2022-12-12T11:05:56.977Z,58.20
2022-12-12T11:08:28.840Z,58.00
2022-12-12T11:11:22.983Z,57.80
2022-12-12T11:14:02.687Z,57.70
2022-12-12T11:16:54.177Z,58.00
2022-12-12T11:19:26.722Z,58.10
2022-12-12T11:21:55.814Z,58.20
2022-12-12T11:24:29.923Z,58.60
2022-12-12T11:27:01.346Z,58.60
2022-12-12T11:29:40.178Z,58.60
2022-12-12T11:32:49.682Z,58.60
2022-12-12T11:35:31.346Z,58.90
2022-12-12T11:38:03.016Z,58.60
2022-12-12T11:40:32.878Z,58.30
2022-12-12T11:43:09.089Z,57.80
2022-12-12T11:45:36.010Z,57.10
2022-12-12T11:48:23.111Z,57.30
2022-12-12T11:50:49.987Z,57.90
2022-12-12T11:53:16.790Z,56.90
2022-12-12T11:55:54.704Z,56.80
2022-12-12T11:58:32.498Z,57.30
2022-12-12T12:01:22.398Z,56.80
2022-12-12T12:04:34.522Z,56.80
2022-12-12T12:07:10.653Z,56.30
2022-12-12T12:09:56.628Z,56.50
2022-12-12T12:12:44.313Z,57.50
2022-12-12T12:15:33.416Z,56.60
2022-12-12T12:18:09.616Z,56.60
2022-12-12T12:20:58.177Z,56.70
2022-12-12T12:23:50.774Z,56.90
2022-12-12T12:26:20.348Z,56.40
2022-12-12T12:29:16.236Z,56.20
2022-12-12T12:32:07.966Z,56.40
2022-12-12T12:34:46.537Z,56.90
2022-12-12T12:37:36.297Z,57.20
2022-12-12T12:40:09.915Z,57.20
2022-12-12T12:43:01.400Z,57.20
2022-12-12T12:45:45.806Z,57.50
2022-12-12T12:48:18.452Z,57.10
2022-12-12T12:51:32.910Z,57.80
2022-12-12T12:54:07.463Z,57.70
2022-12-12T12:56:43.926Z,56.10
2022-12-12T12:59:18.637Z,55.80
2022-12-12T13:01:48.973Z,55.00
2022-12-12T13:04:26.572Z,55.00
2022-12-12T13:07:20.969Z,54.70
2022-12-12T13:10:17.217Z,54.10
2022-12-12T13:13:09.158Z,54.50
2022-12-12T13:15:46.797Z,54.90
2022-12-12T13:18:18.089Z,54.70
2022-12-12T13:20:53.504Z,54.30
2022-12-12T13:24:02.605Z,54.20
2022-12-12T13:26:44.835Z,54.40
2022-12-12T13:29:32.840Z,54.10
2022-12-12T13:32:25.924Z,54.10
2022-12-12T13:34:56.629Z,54.00
2022-12-12T13:37:24.169Z,54.60
2022-12-12T13:40:06.809Z,54.80
2022-12-12T13:43:35.290Z,55.30
2022-12-12T13:46:38.477Z,55.60
2022-12-12T13:49:54.516Z,56.20
2022-12-12T13:52:32.861Z,56.60
2022-12-12T13:55:11.695Z,57.20
2022-12-12T14:00:43.576Z,57.50
2022-12-12T14:03:10.410Z,57.60
2022-12-12T14:05:48.741Z,57.30
2022-12-12T14:08:15.627Z,57.10
2022-12-12T14:10:43.650Z,56.90
2022-12-12T14:13:22.404Z,57.60
2022-12-12T14:15:59.578Z,58.10
2022-12-12T14:18:30.542Z,57.90
2022-12-12T14:21:15.615Z,57.80
2022-12-12T14:23:45.543Z,57.60
2022-12-12T14:26:27.388Z,56.60
2022-12-12T14:29:33.964Z,56.90
2022-12-12T14:32:12.877Z,57.00
2022-12-12T14:34:48.650Z,57.60
2022-12-12T14:37:15.434Z,57.80
2022-12-12T14:40:00.093Z,57.60
2022-12-12T14:43:20.864Z,57.30
2022-12-12T14:46:06.452Z,57.40
2022-12-12T14:48:35.001Z,57.20
2022-12-12T14:51:09.461Z,57.20
2022-12-12T14:53:36.428Z,57.10
2022-12-12T14:56:12.275Z,57.00
2022-12-12T14:58:42.277Z,56.90
2022-12-12T15:01:10.032Z,56.80
2022-12-12T15:03:43.181Z,57.00
2022-12-12T15:06:19.146Z,57.40
2022-12-12T15:08:46.067Z,57.90
2022-12-12T15:11:14.636Z,58.70
2022-12-12T15:13:58.918Z,59.10
2022-12-12T15:16:29.319Z,58.30
2022-12-12T15:18:58.733Z,58.50
2022-12-12T15:21:25.822Z,58.90
2022-12-12T15:23:53.153Z,58.80
2022-12-12T15:26:24.142Z,58.60
2022-12-12T15:28:51.352Z,58.60
2022-12-12T15:31:19.801Z,58.60
2022-12-12T15:33:48.700Z,58.90
2022-12-12T15:36:26.484Z,58.60
2022-12-12T15:39:15.673Z,58.70
2022-12-12T15:41:44.229Z,58.60
2022-12-12T15:44:18.500Z,59.00
2022-12-12T15:46:47.651Z,59.30
2022-12-12T15:49:37.656Z,59.40
2022-12-12T15:52:26.938Z,59.30
2022-12-12T15:55:03.346Z,59.30
2022-12-12T15:57:34.380Z,59.60
2022-12-12T16:00:08.524Z,59.70
2022-12-12T16:02:35.757Z,59.80
2022-12-12T16:05:22.993Z,59.90
2022-12-12T16:07:49.833Z,60.00
2022-12-12T16:10:24.532Z,60.10
2022-12-12T16:13:20.359Z,60.50
2022-12-12T16:15:47.379Z,60.60
2022-12-12T16:18:14.310Z,60.80
2022-12-12T16:20:53.989Z,60.70
2022-12-12T16:23:28.283Z,61.00
2022-12-12T16:25:55.919Z,61.10
2022-12-12T16:28:26.030Z,61.40
2022-12-12T16:31:00.684Z,61.40
2022-12-12T16:33:38.207Z,61.50
2022-12-12T16:36:08.077Z,61.60
2022-12-12T16:38:35.704Z,61.80
2022-12-12T16:41:12.716Z,61.60
2022-12-12T16:43:40.253Z,61.40
2022-12-12T16:46:13.988Z,61.40
2022-12-12T16:48:40.885Z,61.40
2022-12-12T16:51:14.011Z,61.10
2022-12-12T16:53:40.835Z,60.80
2022-12-12T16:56:08.133Z,61.10
2022-12-12T16:58:35.037Z,61.00
2022-12-12T17:01:02.868Z,61.10
2022-12-12T17:03:30.603Z,60.80
2022-12-12T17:06:18.218Z,60.80
2022-12-12T17:08:46.528Z,61.10
2022-12-12T17:11:13.588Z,60.90
2022-12-12T17:13:46.636Z,60.90
2022-12-12T17:16:13.694Z,61.00
2022-12-12T17:18:40.588Z,61.30
2022-12-12T17:21:07.479Z,61.30
2022-12-12T17:23:34.419Z,61.40
2022-12-12T17:26:04.799Z,61.50
2022-12-12T17:28:33.813Z,61.70
2022-12-12T17:31:01.782Z,61.70
2022-12-12T17:33:28.613Z,61.70
2022-12-12T17:36:06.965Z,61.60
2022-12-12T17:38:34.203Z,61.50
2022-12-12T17:41:06.012Z,61.60
2022-12-12T17:43:33.209Z,61.50
2022-12-12T17:46:02.979Z,61.50
2022-12-12T17:48:32.166Z,61.70
2022-12-12T17:51:04.411Z,61.60
2022-12-12T17:53:36.712Z,61.50
2022-12-12T17:56:08.519Z,61.50
2022-12-12T17:58:40.942Z,61.20
2022-12-12T18:01:13.217Z,61.30
2022-12-12T18:03:41.028Z,61.40
2022-12-12T18:06:08.378Z,61.40
2022-12-12T18:08:35.911Z,61.50
2022-12-12T18:11:06.693Z,61.50
2022-12-12T18:13:33.542Z,61.40
2022-12-12T18:16:00.596Z,61.50
2022-12-12T18:18:28.371Z,61.40
2022-12-12T18:20:55.343Z,61.50
2022-12-12T18:23:22.561Z,61.40
2022-12-12T18:25:49.508Z,61.40
2022-12-12T18:28:16.276Z,61.40
2022-12-12T18:30:43.068Z,61.40
2022-12-12T18:33:10.567Z,61.50
2022-12-12T18:35:38.041Z,61.50
2022-12-12T18:38:04.930Z,61.60
2022-12-12T18:40:31.865Z,61.70
2022-12-12T18:42:58.655Z,61.50
2022-12-12T18:45:25.483Z,61.50
2022-12-12T18:47:52.325Z,61.50
2022-12-12T18:50:19.312Z,61.20
2022-12-12T18:52:46.127Z,61.30
2022-12-12T18:55:13.015Z,61.10
2022-12-12T18:57:39.939Z,61.20
2022-12-12T19:00:07.520Z,61.10
2022-12-12T19:02:38.631Z,61.10
2022-12-12T19:05:06.915Z,61.10
2022-12-12T19:07:33.886Z,61.10
2022-12-12T19:10:00.718Z,61.00
2022-12-12T19:12:27.504Z,61.00
2022-12-12T19:17:41.426Z,60.70
2022-12-12T19:20:08.656Z,60.70
2022-12-12T19:22:50.762Z,60.70
2022-12-12T19:25:18.946Z,60.80
2022-12-12T19:27:45.818Z,60.80
2022-12-12T19:30:14.309Z,60.50
2022-12-12T19:32:41.483Z,60.50
2022-12-12T19:35:08.656Z,60.50
2022-12-12T19:37:38.384Z,60.50
2022-12-12T19:40:05.696Z,60.40
2022-12-12T19:42:32.468Z,60.30
2022-12-12T19:44:59.386Z,60.40
2022-12-12T19:47:27.393Z,60.20
2022-12-12T19:49:54.179Z,60.40
2022-12-12T19:52:20.981Z,60.20
2022-12-12T19:54:47.783Z,60.50
2022-12-12T19:57:14.623Z,60.30
2022-12-12T19:59:41.425Z,60.50
2022-12-12T20:02:10.256Z,60.50
2022-12-12T20:04:39.299Z,60.40
2022-12-12T20:07:06.180Z,60.30
2022-12-12T20:09:35.678Z,60.20
2022-12-12T20:12:02.591Z,60.00
2022-12-12T20:14:34.498Z,60.30
2022-12-12T20:17:03.094Z,60.40
2022-12-12T20:19:30.753Z,60.60
2022-12-12T20:22:00.932Z,60.30
2022-12-12T20:24:29.147Z,60.00
2022-12-12T20:26:56.270Z,60.30
2022-12-12T20:29:23.536Z,60.30
2022-12-12T20:31:50.822Z,60.30
2022-12-12T20:34:24.659Z,60.40
2022-12-12T20:36:52.456Z,60.50
2022-12-12T20:39:22.052Z,60.40
2022-12-12T20:41:50.342Z,60.20
2022-12-12T20:44:17.538Z,60.50
2022-12-12T20:46:46.000Z,60.30
2022-12-12T20:49:15.999Z,60.60
2022-12-12T20:51:59.211Z,60.90
2022-12-12T20:54:28.352Z,60.60
2022-12-12T20:56:57.467Z,60.50
2022-12-12T20:59:24.934Z,60.50
2022-12-12T21:01:52.520Z,60.50
2022-12-12T21:04:19.690Z,60.70
2022-12-12T21:06:50.050Z,60.80
2022-12-12T21:09:23.919Z,61.00
2022-12-12T21:11:58.005Z,60.80
2022-12-12T21:14:26.938Z,60.90
2022-12-12T21:16:54.479Z,60.80
2022-12-12T21:19:22.831Z,60.70
2022-12-12T21:21:50.534Z,60.80
2022-12-12T21:24:18.039Z,60.60
2022-12-12T21:26:45.460Z,60.60
2022-12-12T21:29:12.366Z,60.30
2022-12-12T21:31:48.221Z,60.40
2022-12-12T21:34:18.558Z,60.30
2022-12-12T21:36:45.403Z,60.40
2022-12-12T21:39:13.445Z,60.30
2022-12-12T21:41:42.134Z,60.40
2022-12-12T21:44:09.802Z,60.30
2022-12-12T21:46:37.244Z,59.90
2022-12-12T21:49:22.888Z,60.00
2022-12-12T21:51:49.697Z,59.60
2022-12-12T21:54:16.650Z,59.60
2022-12-12T21:56:43.990Z,59.70
2022-12-12T21:59:12.687Z,59.60
2022-12-12T22:01:40.411Z,59.50
2022-12-12T22:04:07.516Z,59.60
2022-12-12T22:06:35.883Z,59.70
2022-12-12T22:09:06.317Z,60.00
2022-12-12T22:11:41.340Z,60.00
2022-12-12T22:14:17.700Z,60.20
2022-12-12T22:16:45.001Z,60.30
2022-12-12T22:19:13.868Z,60.90
2022-12-12T22:21:40.909Z,60.10
2022-12-12T22:24:08.230Z,60.20
2022-12-12T22:26:38.287Z,60.10
2022-12-12T22:29:11.089Z,60.10
2022-12-12T22:31:39.798Z,60.30
2022-12-12T22:34:11.492Z,60.00
2022-12-12T22:36:39.308Z,59.80
2022-12-12T22:39:08.462Z,59.90
2022-12-12T22:41:35.289Z,59.90
2022-12-12T22:44:05.186Z,60.30
2022-12-12T22:46:32.621Z,60.10
2022-12-12T22:49:01.228Z,60.20
2022-12-12T22:51:31.180Z,60.20
2022-12-12T22:54:00.277Z,59.60
2022-12-12T22:56:29.403Z,59.80
2022-12-12T22:58:56.324Z,59.70
2022-12-12T23:01:24.621Z,59.80
2022-12-12T23:03:52.577Z,59.90
2022-12-12T23:06:29.954Z,60.10
2022-12-12T23:09:03.585Z,60.30
2022-12-12T23:11:31.494Z,60.50
2022-12-12T23:14:07.449Z,60.40
2022-12-12T23:16:35.739Z,60.70
2022-12-12T23:19:04.709Z,61.00
2022-12-12T23:21:31.664Z,61.10
2022-12-12T23:23:58.492Z,61.10
2022-12-12T23:26:30.011Z,61.40
2022-12-12T23:29:00.314Z,61.60
2022-12-12T23:31:33.255Z,61.60
2022-12-12T23:34:02.757Z,61.70
2022-12-12T23:36:29.656Z,61.60
2022-12-12T23:38:57.968Z,61.60
2022-12-12T23:41:25.833Z,61.70
2022-12-12T23:43:53.109Z,61.60
2022-12-12T23:46:29.318Z,61.60
2022-12-12T23:48:57.149Z,61.50
2022-12-12T23:51:25.100Z,61.40
2022-12-12T23:53:52.129Z,61.40
2022-12-12T23:56:18.908Z,61.50
2022-12-12T23:58:45.673Z,61.60
